sensor_id;sensor_type;location;lat;lon;timestamp;pressure;altitude;pressure_sealevel;temperature;humidity
41947;BME280;27638;42.184;24.848;2022-07-06T00:02:21;99699.16;;;24.79;51.94
41947;BME280;27638;42.184;24.848;2022-07-06T00:04:47;99699.81;;;24.91;51.94
41947;BME280;27638;42.184;24.848;2022-07-06T00:07:12;99706.34;;;24.95;51.60
41947;BME280;27638;42.184;24.848;2022-07-06T00:09:40;99688.88;;;24.81;51.24
41947;BME280;27638;42.184;24.848;2022-07-06T00:12:05;99706.06;;;24.92;51.43
41947;BME280;27638;42.184;24.848;2022-07-06T00:14:31;99699.25;;;24.89;51.30
41947;BME280;27638;42.184;24.848;2022-07-06T00:16:56;99704.00;;;24.99;51.63
41947;BME280;27638;42.184;24.848;2022-07-06T00:19:22;99715.19;;;25.07;51.19
41947;BME280;27638;42.184;24.848;2022-07-06T00:21:47;99703.59;;;25.12;51.13
41947;BME280;27638;42.184;24.848;2022-07-06T00:24:13;99701.44;;;25.14;51.60
41947;BME280;27638;42.184;24.848;2022-07-06T00:26:38;99671.34;;;24.89;50.73
41947;BME280;27638;42.184;24.848;2022-07-06T00:29:04;99692.50;;;25.13;50.72
41947;BME280;27638;42.184;24.848;2022-07-06T00:31:29;99696.31;;;25.18;50.40
41947;BME280;27638;42.184;24.848;2022-07-06T00:33:55;99692.78;;;25.17;50.47
41947;BME280;27638;42.184;24.848;2022-07-06T00:36:20;99686.34;;;25.23;49.80
41947;BME280;27638;42.184;24.848;2022-07-06T00:38:45;99688.84;;;25.35;49.61
41947;BME280;27638;42.184;24.848;2022-07-06T00:41:12;99677.72;;;25.31;49.09
41947;BME280;27638;42.184;24.848;2022-07-06T00:43:53;99680.34;;;24.94;51.59
41947;BME280;27638;42.184;24.848;2022-07-06T00:46:24;99670.09;;;24.69;52.85
41947;BME280;27638;42.184;24.848;2022-07-06T00:48:51;99671.69;;;24.65;53.57
41947;BME280;27638;42.184;24.848;2022-07-06T00:51:17;99654.63;;;24.65;54.21
41947;BME280;27638;42.184;24.848;2022-07-06T00:53:43;99654.09;;;24.68;53.64
41947;BME280;27638;42.184;24.848;2022-07-06T00:56:10;99653.97;;;24.52;53.99
41947;BME280;27638;42.184;24.848;2022-07-06T00:58:35;99651.56;;;24.56;53.99
41947;BME280;27638;42.184;24.848;2022-07-06T01:01:01;99644.97;;;24.47;54.51
41947;BME280;27638;42.184;24.848;2022-07-06T01:03:26;99644.88;;;24.64;53.80
41947;BME280;27638;42.184;24.848;2022-07-06T01:05:52;99648.69;;;24.41;54.58
41947;BME280;27638;42.184;24.848;2022-07-06T01:08:17;99632.25;;;24.47;53.99
41947;BME280;27638;42.184;24.848;2022-07-06T01:10:43;99636.44;;;24.60;54.92
41947;BME280;27638;42.184;24.848;2022-07-06T01:13:09;99623.34;;;24.79;54.42
41947;BME280;27638;42.184;24.848;2022-07-06T01:15:35;99620.72;;;24.89;54.43
41947;BME280;27638;42.184;24.848;2022-07-06T01:18:00;99612.28;;;24.86;54.21
41947;BME280;27638;42.184;24.848;2022-07-06T01:20:27;99607.41;;;24.82;53.52
41947;BME280;27638;42.184;24.848;2022-07-06T01:22:54;99604.72;;;24.88;54.11
41947;BME280;27638;42.184;24.848;2022-07-06T01:25:21;99604.47;;;24.89;54.33
41947;BME280;27638;42.184;24.848;2022-07-06T01:27:47;99600.13;;;24.88;55.08
41947;BME280;27638;42.184;24.848;2022-07-06T01:30:15;99583.28;;;24.81;54.96
41947;BME280;27638;42.184;24.848;2022-07-06T01:32:42;99594.94;;;24.81;54.95
41947;BME280;27638;42.184;24.848;2022-07-06T01:35:10;99592.41;;;24.70;54.99
41947;BME280;27638;42.184;24.848;2022-07-06T01:37:36;99588.78;;;24.59;55.20
41947;BME280;27638;42.184;24.848;2022-07-06T01:40:04;99585.03;;;24.65;55.17
41947;BME280;27638;42.184;24.848;2022-07-06T01:42:30;99573.63;;;24.58;55.82
41947;BME280;27638;42.184;24.848;2022-07-06T01:44:56;99579.25;;;24.51;55.93
41947;BME280;27638;42.184;24.848;2022-07-06T01:47:21;99570.69;;;24.33;56.05
41947;BME280;27638;42.184;24.848;2022-07-06T01:49:47;99581.09;;;24.46;56.01
41947;BME280;27638;42.184;24.848;2022-07-06T01:52:13;99573.56;;;24.53;56.24
41947;BME280;27638;42.184;24.848;2022-07-06T01:54:38;99574.13;;;24.55;56.37
41947;BME280;27638;42.184;24.848;2022-07-06T01:57:04;99568.69;;;24.50;56.26
41947;BME280;27638;42.184;24.848;2022-07-06T01:59:30;99558.47;;;24.30;57.10
41947;BME280;27638;42.184;24.848;2022-07-06T02:01:55;99555.38;;;24.22;57.92
41947;BME280;27638;42.184;24.848;2022-07-06T02:04:21;99566.22;;;24.22;57.93
41947;BME280;27638;42.184;24.848;2022-07-06T02:06:46;99552.59;;;24.11;57.81
41947;BME280;27638;42.184;24.848;2022-07-06T02:09:12;99543.41;;;24.12;58.42
41947;BME280;27638;42.184;24.848;2022-07-06T02:11:37;99542.16;;;23.98;57.58
41947;BME280;27638;42.184;24.848;2022-07-06T02:14:03;99563.97;;;23.92;57.31
41947;BME280;27638;42.184;24.848;2022-07-06T02:16:28;99545.50;;;23.83;57.85
41947;BME280;27638;42.184;24.848;2022-07-06T02:18:54;99553.75;;;23.72;58.15
41947;BME280;27638;42.184;24.848;2022-07-06T02:21:19;99544.19;;;23.64;58.01
41947;BME280;27638;42.184;24.848;2022-07-06T02:23:45;99553.44;;;23.68;57.70
41947;BME280;27638;42.184;24.848;2022-07-06T02:26:10;99557.97;;;23.63;57.94
41947;BME280;27638;42.184;24.848;2022-07-06T02:28:35;99553.94;;;23.65;57.95
41947;BME280;27638;42.184;24.848;2022-07-06T02:31:01;99549.44;;;23.54;57.73
41947;BME280;27638;42.184;24.848;2022-07-06T02:33:27;99548.00;;;23.46;58.23
41947;BME280;27638;42.184;24.848;2022-07-06T02:35:52;99537.75;;;23.27;58.78
41947;BME280;27638;42.184;24.848;2022-07-06T02:38:18;99544.09;;;23.37;59.16
41947;BME280;27638;42.184;24.848;2022-07-06T02:40:43;99536.25;;;23.36;58.83
41947;BME280;27638;42.184;24.848;2022-07-06T02:43:09;99538.75;;;23.42;58.55
41947;BME280;27638;42.184;24.848;2022-07-06T02:45:34;99537.16;;;23.24;58.26
41947;BME280;27638;42.184;24.848;2022-07-06T02:47:59;99540.22;;;23.11;59.43
41947;BME280;27638;42.184;24.848;2022-07-06T02:50:25;99547.78;;;22.92;60.18
41947;BME280;27638;42.184;24.848;2022-07-06T02:52:50;99541.97;;;22.84;60.28
41947;BME280;27638;42.184;24.848;2022-07-06T02:55:16;99552.88;;;22.89;60.37
41947;BME280;27638;42.184;24.848;2022-07-06T02:57:42;99560.38;;;22.87;61.59
41947;BME280;27638;42.184;24.848;2022-07-06T03:00:08;99564.13;;;22.86;61.30
41947;BME280;27638;42.184;24.848;2022-07-06T03:02:35;99571.44;;;23.02;61.59
41947;BME280;27638;42.184;24.848;2022-07-06T03:05:00;99563.28;;;23.19;61.70
41947;BME280;27638;42.184;24.848;2022-07-06T03:07:26;99569.66;;;23.30;61.65
41947;BME280;27638;42.184;24.848;2022-07-06T03:09:51;99576.13;;;23.29;62.07
41947;BME280;27638;42.184;24.848;2022-07-06T03:12:16;99574.75;;;23.26;62.13
41947;BME280;27638;42.184;24.848;2022-07-06T03:14:42;99575.00;;;23.24;62.35
41947;BME280;27638;42.184;24.848;2022-07-06T03:17:08;99579.22;;;23.37;62.42
41947;BME280;27638;42.184;24.848;2022-07-06T03:19:33;99576.56;;;23.20;62.32
41947;BME280;27638;42.184;24.848;2022-07-06T03:21:59;99584.78;;;23.31;62.17
41947;BME280;27638;42.184;24.848;2022-07-06T03:24:24;99592.53;;;23.44;61.49
41947;BME280;27638;42.184;24.848;2022-07-06T03:26:50;99585.13;;;23.34;61.92
41947;BME280;27638;42.184;24.848;2022-07-06T03:29:15;99590.66;;;23.44;61.36
41947;BME280;27638;42.184;24.848;2022-07-06T03:31:41;99600.97;;;23.47;61.53
41947;BME280;27638;42.184;24.848;2022-07-06T03:34:06;99594.72;;;23.64;60.84
41947;BME280;27638;42.184;24.848;2022-07-06T03:36:31;99601.09;;;23.74;60.68
41947;BME280;27638;42.184;24.848;2022-07-06T03:38:57;99592.66;;;23.71;60.74
41947;BME280;27638;42.184;24.848;2022-07-06T03:41:22;99590.84;;;23.76;60.54
41947;BME280;27638;42.184;24.848;2022-07-06T03:43:48;99595.03;;;23.89;60.41
41947;BME280;27638;42.184;24.848;2022-07-06T03:46:13;99606.56;;;23.79;61.16
41947;BME280;27638;42.184;24.848;2022-07-06T03:48:39;99604.53;;;23.92;60.50
41947;BME280;27638;42.184;24.848;2022-07-06T03:51:04;99596.88;;;24.05;60.16
41947;BME280;27638;42.184;24.848;2022-07-06T03:53:31;99589.84;;;24.04;60.16
41947;BME280;27638;42.184;24.848;2022-07-06T03:55:57;99604.53;;;24.13;60.26
41947;BME280;27638;42.184;24.848;2022-07-06T03:58:41;99596.78;;;24.22;61.01
41947;BME280;27638;42.184;24.848;2022-07-06T04:01:06;99595.84;;;24.33;59.38
41947;BME280;27638;42.184;24.848;2022-07-06T04:03:31;99601.66;;;24.47;59.10
41947;BME280;27638;42.184;24.848;2022-07-06T04:05:57;99605.41;;;24.41;59.42
41947;BME280;27638;42.184;24.848;2022-07-06T04:08:22;99605.28;;;24.58;59.09
41947;BME280;27638;42.184;24.848;2022-07-06T04:10:48;99605.13;;;24.69;58.75
41947;BME280;27638;42.184;24.848;2022-07-06T04:13:13;99599.75;;;24.74;58.24
41947;BME280;27638;42.184;24.848;2022-07-06T04:15:39;99603.91;;;24.87;57.40
41947;BME280;27638;42.184;24.848;2022-07-06T04:18:04;99601.25;;;24.92;57.85
41947;BME280;27638;42.184;24.848;2022-07-06T04:20:30;99613.38;;;24.84;57.47
41947;BME280;27638;42.184;24.848;2022-07-06T04:22:55;99610.97;;;24.88;58.18
41947;BME280;27638;42.184;24.848;2022-07-06T04:25:21;99613.44;;;25.22;56.98
41947;BME280;27638;42.184;24.848;2022-07-06T04:27:46;99609.94;;;25.26;55.27
41947;BME280;27638;42.184;24.848;2022-07-06T04:30:12;99604.50;;;25.26;55.22
41947;BME280;27638;42.184;24.848;2022-07-06T04:32:37;99605.75;;;25.56;54.95
41947;BME280;27638;42.184;24.848;2022-07-06T04:35:04;99610.09;;;25.52;54.04
41947;BME280;27638;42.184;24.848;2022-07-06T04:37:30;99613.72;;;25.67;53.67
41947;BME280;27638;42.184;24.848;2022-07-06T04:39:55;99606.19;;;25.80;53.36
41947;BME280;27638;42.184;24.848;2022-07-06T04:42:21;99610.03;;;25.94;53.41
41947;BME280;27638;42.184;24.848;2022-07-06T04:44:46;99590.31;;;26.08;52.66
41947;BME280;27638;42.184;24.848;2022-07-06T04:47:12;99591.94;;;26.15;52.40
41947;BME280;27638;42.184;24.848;2022-07-06T04:49:38;99604.22;;;26.32;52.83
41947;BME280;27638;42.184;24.848;2022-07-06T04:52:04;99593.66;;;26.56;51.75
41947;BME280;27638;42.184;24.848;2022-07-06T04:54:30;99596.94;;;26.84;52.53
41947;BME280;27638;42.184;24.848;2022-07-06T04:56:56;99601.84;;;27.02;51.63
41947;BME280;27638;42.184;24.848;2022-07-06T04:59:21;99593.16;;;27.10;51.31
41947;BME280;27638;42.184;24.848;2022-07-06T05:01:47;99585.81;;;27.11;51.09
41947;BME280;27638;42.184;24.848;2022-07-06T05:04:12;99601.56;;;27.24;50.91
41947;BME280;27638;42.184;24.848;2022-07-06T05:06:38;99595.22;;;27.54;50.49
41947;BME280;27638;42.184;24.848;2022-07-06T05:09:05;99600.41;;;27.50;50.38
41947;BME280;27638;42.184;24.848;2022-07-06T05:11:30;99594.69;;;27.67;50.73
41947;BME280;27638;42.184;24.848;2022-07-06T05:13:56;99599.28;;;27.72;50.97
41947;BME280;27638;42.184;24.848;2022-07-06T05:16:21;99598.59;;;28.00;51.13
41947;BME280;27638;42.184;24.848;2022-07-06T05:18:47;99603.34;;;27.79;51.82
41947;BME280;27638;42.184;24.848;2022-07-06T05:21:12;99607.34;;;27.97;52.15
41947;BME280;27638;42.184;24.848;2022-07-06T05:23:38;99600.84;;;27.88;51.59
41947;BME280;27638;42.184;24.848;2022-07-06T05:26:04;99611.94;;;28.02;51.16
41947;BME280;27638;42.184;24.848;2022-07-06T05:28:29;99614.63;;;28.12;51.89
41947;BME280;27638;42.184;24.848;2022-07-06T05:30:55;99619.28;;;28.01;51.27
41947;BME280;27638;42.184;24.848;2022-07-06T05:33:20;99622.91;;;27.81;51.69
41947;BME280;27638;42.184;24.848;2022-07-06T05:35:46;99628.81;;;27.98;51.61
41947;BME280;27638;42.184;24.848;2022-07-06T05:38:11;99635.28;;;28.18;50.67
41947;BME280;27638;42.184;24.848;2022-07-06T05:40:37;99627.50;;;28.50;50.49
41947;BME280;27638;42.184;24.848;2022-07-06T05:43:02;99639.34;;;29.09;49.49
41947;BME280;27638;42.184;24.848;2022-07-06T05:45:28;99642.81;;;29.48;48.68
41947;BME280;27638;42.184;24.848;2022-07-06T05:47:54;99645.34;;;29.40;48.84
41947;BME280;27638;42.184;24.848;2022-07-06T05:50:38;99645.16;;;29.31;48.96
41947;BME280;27638;42.184;24.848;2022-07-06T05:53:05;99647.88;;;29.31;48.21
41947;BME280;27638;42.184;24.848;2022-07-06T05:55:32;99651.59;;;29.45;47.58
41947;BME280;27638;42.184;24.848;2022-07-06T05:57:57;99650.94;;;29.24;49.83
41947;BME280;27638;42.184;24.848;2022-07-06T06:00:24;99645.25;;;28.87;49.12
41947;BME280;27638;42.184;24.848;2022-07-06T06:02:50;99649.56;;;28.93;49.89
41947;BME280;27638;42.184;24.848;2022-07-06T06:05:16;99660.03;;;29.10;50.35
41947;BME280;27638;42.184;24.848;2022-07-06T06:07:42;99657.34;;;29.39;49.90
41947;BME280;27638;42.184;24.848;2022-07-06T06:10:10;99647.78;;;29.41;50.05
41947;BME280;27638;42.184;24.848;2022-07-06T06:12:36;99658.66;;;29.46;50.91
41947;BME280;27638;42.184;24.848;2022-07-06T06:15:03;99660.25;;;29.52;50.70
41947;BME280;27638;42.184;24.848;2022-07-06T06:17:29;99646.66;;;29.47;50.13
41947;BME280;27638;42.184;24.848;2022-07-06T06:19:55;99656.22;;;29.45;50.54
41947;BME280;27638;42.184;24.848;2022-07-06T06:22:20;99653.22;;;29.46;50.57
41947;BME280;27638;42.184;24.848;2022-07-06T06:24:46;99650.31;;;29.62;49.56
41947;BME280;27638;42.184;24.848;2022-07-06T06:27:11;99647.00;;;29.65;49.04
41947;BME280;27638;42.184;24.848;2022-07-06T06:29:37;99634.00;;;29.57;50.40
41947;BME280;27638;42.184;24.848;2022-07-06T06:32:03;99655.78;;;30.09;48.17
41947;BME280;27638;42.184;24.848;2022-07-06T06:34:30;99651.66;;;30.12;49.05
41947;BME280;27638;42.184;24.848;2022-07-06T06:36:56;99632.81;;;30.34;47.01
41947;BME280;27638;42.184;24.848;2022-07-06T06:39:21;99649.72;;;30.12;47.38
41947;BME280;27638;42.184;24.848;2022-07-06T06:41:47;99650.66;;;29.79;46.37
41947;BME280;27638;42.184;24.848;2022-07-06T06:44:12;99648.53;;;29.76;46.58
41947;BME280;27638;42.184;24.848;2022-07-06T06:46:39;99651.78;;;29.78;47.03
41947;BME280;27638;42.184;24.848;2022-07-06T06:49:05;99653.56;;;30.11;46.29
41947;BME280;27638;42.184;24.848;2022-07-06T06:51:31;99655.03;;;30.46;45.97
41947;BME280;27638;42.184;24.848;2022-07-06T06:53:57;99651.81;;;30.63;44.77
41947;BME280;27638;42.184;24.848;2022-07-06T06:56:22;99651.00;;;30.63;44.53
41947;BME280;27638;42.184;24.848;2022-07-06T06:58:48;99638.06;;;30.68;46.03
41947;BME280;27638;42.184;24.848;2022-07-06T07:01:13;99646.06;;;30.97;46.03
41947;BME280;27638;42.184;24.848;2022-07-06T07:03:39;99639.22;;;31.13;44.95
41947;BME280;27638;42.184;24.848;2022-07-06T07:06:04;99641.72;;;30.96;44.66
41947;BME280;27638;42.184;24.848;2022-07-06T07:08:30;99628.00;;;31.48;44.69
41947;BME280;27638;42.184;24.848;2022-07-06T07:10:55;99631.94;;;31.41;43.14
41947;BME280;27638;42.184;24.848;2022-07-06T07:13:21;99625.44;;;31.24;43.90
41947;BME280;27638;42.184;24.848;2022-07-06T07:15:46;99637.72;;;30.89;44.50
41947;BME280;27638;42.184;24.848;2022-07-06T07:18:11;99629.41;;;30.80;45.48
41947;BME280;27638;42.184;24.848;2022-07-06T07:20:37;99630.09;;;31.04;44.93
41947;BME280;27638;42.184;24.848;2022-07-06T07:23:03;99622.69;;;31.05;44.65
41947;BME280;27638;42.184;24.848;2022-07-06T07:25:29;99633.38;;;31.20;44.38
41947;BME280;27638;42.184;24.848;2022-07-06T07:27:54;99625.19;;;31.20;44.04
41947;BME280;27638;42.184;24.848;2022-07-06T07:30:20;99623.34;;;31.16;44.16
41947;BME280;27638;42.184;24.848;2022-07-06T07:32:46;99620.13;;;30.95;44.83
41947;BME280;27638;42.184;24.848;2022-07-06T07:35:11;99622.00;;;31.59;42.57
41947;BME280;27638;42.184;24.848;2022-07-06T07:37:37;99626.38;;;31.47;44.29
41947;BME280;27638;42.184;24.848;2022-07-06T07:40:03;99621.91;;;31.37;44.29
41947;BME280;27638;42.184;24.848;2022-07-06T07:42:29;99629.94;;;31.15;44.81
41947;BME280;27638;42.184;24.848;2022-07-06T07:44:55;99626.75;;;31.40;42.88
41947;BME280;27638;42.184;24.848;2022-07-06T07:47:20;99620.47;;;31.26;43.73
41947;BME280;27638;42.184;24.848;2022-07-06T07:49:46;99624.78;;;31.73;42.06
41947;BME280;27638;42.184;24.848;2022-07-06T07:52:11;99619.50;;;31.77;42.22
41947;BME280;27638;42.184;24.848;2022-07-06T07:54:37;99620.78;;;31.52;41.93
41947;BME280;27638;42.184;24.848;2022-07-06T07:57:03;99619.44;;;31.22;43.85
41947;BME280;27638;42.184;24.848;2022-07-06T07:59:28;99624.31;;;31.06;43.59
41947;BME280;27638;42.184;24.848;2022-07-06T08:01:54;99619.09;;;30.91;43.73
41947;BME280;27638;42.184;24.848;2022-07-06T08:04:19;99625.56;;;30.25;45.13
41947;BME280;27638;42.184;24.848;2022-07-06T08:06:45;99632.00;;;30.53;45.12
41947;BME280;27638;42.184;24.848;2022-07-06T08:09:11;99633.50;;;30.64;43.88
41947;BME280;27638;42.184;24.848;2022-07-06T08:11:37;99630.88;;;30.54;45.01
41947;BME280;27638;42.184;24.848;2022-07-06T08:14:03;99633.69;;;30.48;44.96
41947;BME280;27638;42.184;24.848;2022-07-06T08:16:29;99632.88;;;30.48;45.61
41947;BME280;27638;42.184;24.848;2022-07-06T08:18:54;99633.09;;;30.70;44.91
41947;BME280;27638;42.184;24.848;2022-07-06T08:21:20;99626.66;;;30.80;44.51
41947;BME280;27638;42.184;24.848;2022-07-06T08:23:45;99625.50;;;31.00;43.66
41947;BME280;27638;42.184;24.848;2022-07-06T08:26:11;99620.09;;;31.60;44.13
41947;BME280;27638;42.184;24.848;2022-07-06T08:28:36;99611.66;;;31.56;42.28
41947;BME280;27638;42.184;24.848;2022-07-06T08:31:02;99616.25;;;31.74;42.56
41947;BME280;27638;42.184;24.848;2022-07-06T08:33:27;99614.00;;;32.04;42.07
41947;BME280;27638;42.184;24.848;2022-07-06T08:35:53;99610.31;;;32.22;40.34
41947;BME280;27638;42.184;24.848;2022-07-06T08:38:18;99597.88;;;32.52;39.75
41947;BME280;27638;42.184;24.848;2022-07-06T08:40:47;99608.97;;;32.69;39.97
41947;BME280;27638;42.184;24.848;2022-07-06T08:43:14;99612.09;;;32.77;39.42
41947;BME280;27638;42.184;24.848;2022-07-06T08:45:40;99605.47;;;32.55;38.58
41947;BME280;27638;42.184;24.848;2022-07-06T08:48:09;99605.25;;;32.16;40.69
41947;BME280;27638;42.184;24.848;2022-07-06T08:50:35;99604.25;;;32.12;41.18
41947;BME280;27638;42.184;24.848;2022-07-06T08:53:01;99618.28;;;31.96;41.65
41947;BME280;27638;42.184;24.848;2022-07-06T08:55:27;99614.13;;;31.71;41.58
41947;BME280;27638;42.184;24.848;2022-07-06T08:57:54;99607.22;;;31.88;41.57
41947;BME280;27638;42.184;24.848;2022-07-06T09:00:21;99604.41;;;31.79;41.93
41947;BME280;27638;42.184;24.848;2022-07-06T09:02:48;99611.47;;;31.53;42.34
41947;BME280;27638;42.184;24.848;2022-07-06T09:05:16;99615.03;;;31.53;42.02
41947;BME280;27638;42.184;24.848;2022-07-06T09:07:45;99611.47;;;31.53;42.02
41947;BME280;27638;42.184;24.848;2022-07-06T09:10:14;99610.66;;;31.66;42.34
41947;BME280;27638;42.184;24.848;2022-07-06T09:12:42;99617.84;;;31.34;41.85
41947;BME280;27638;42.184;24.848;2022-07-06T09:15:07;99620.56;;;31.02;44.07
41947;BME280;27638;42.184;24.848;2022-07-06T09:17:37;99619.25;;;31.13;43.88
41947;BME280;27638;42.184;24.848;2022-07-06T09:20:07;99607.69;;;31.02;44.00
41947;BME280;27638;42.184;24.848;2022-07-06T09:22:33;99624.00;;;31.26;43.84
41947;BME280;27638;42.184;24.848;2022-07-06T09:25:10;99626.84;;;31.21;43.44
41947;BME280;27638;42.184;24.848;2022-07-06T09:27:40;99623.91;;;31.12;43.59
41947;BME280;27638;42.184;24.848;2022-07-06T09:30:08;99627.72;;;31.17;44.17
41947;BME280;27638;42.184;24.848;2022-07-06T09:32:46;99624.72;;;31.13;43.48
41947;BME280;27638;42.184;24.848;2022-07-06T09:35:35;99621.75;;;30.96;44.04
41947;BME280;27638;42.184;24.848;2022-07-06T09:38:10;99622.09;;;30.75;44.15
41947;BME280;27638;42.184;24.848;2022-07-06T09:40:38;99622.56;;;30.64;45.36
41947;BME280;27638;42.184;24.848;2022-07-06T09:43:22;99627.78;;;30.41;46.34
41947;BME280;27638;42.184;24.848;2022-07-06T09:45:53;99613.16;;;30.32;47.12
41947;BME280;27638;42.184;24.848;2022-07-06T09:48:21;99625.50;;;30.30;47.45
41947;BME280;27638;42.184;24.848;2022-07-06T09:50:54;99618.84;;;30.36;47.45
41947;BME280;27638;42.184;24.848;2022-07-06T09:53:21;99613.91;;;30.38;47.31
41947;BME280;27638;42.184;24.848;2022-07-06T09:55:48;99610.44;;;30.32;48.41
41947;BME280;27638;42.184;24.848;2022-07-06T09:58:15;99612.94;;;30.29;47.43
41947;BME280;27638;42.184;24.848;2022-07-06T10:00:44;99609.19;;;30.43;47.10
41947;BME280;27638;42.184;24.848;2022-07-06T10:03:11;99603.63;;;30.67;46.48
41947;BME280;27638;42.184;24.848;2022-07-06T10:05:39;99597.41;;;30.80;45.74
41947;BME280;27638;42.184;24.848;2022-07-06T10:08:05;99603.25;;;30.74;45.24
41947;BME280;27638;42.184;24.848;2022-07-06T10:10:32;99591.56;;;30.87;45.41
41947;BME280;27638;42.184;24.848;2022-07-06T10:12:59;99592.31;;;31.06;44.83
41947;BME280;27638;42.184;24.848;2022-07-06T10:15:29;99588.75;;;31.25;43.96
41947;BME280;27638;42.184;24.848;2022-07-06T10:17:57;99583.50;;;31.42;43.53
41947;BME280;27638;42.184;24.848;2022-07-06T10:20:24;99574.78;;;31.67;42.67
41947;BME280;27638;42.184;24.848;2022-07-06T10:22:54;99576.59;;;31.86;41.17
41947;BME280;27638;42.184;24.848;2022-07-06T10:25:23;99565.63;;;31.99;40.67
41947;BME280;27638;42.184;24.848;2022-07-06T10:27:48;99568.94;;;32.10;39.04
41947;BME280;27638;42.184;24.848;2022-07-06T10:30:15;99569.09;;;32.41;38.52
41947;BME280;27638;42.184;24.848;2022-07-06T10:32:43;99570.38;;;32.07;38.66
41947;BME280;27638;42.184;24.848;2022-07-06T10:35:10;99570.91;;;31.96;40.05
41947;BME280;27638;42.184;24.848;2022-07-06T10:37:35;99571.50;;;32.06;39.48
41947;BME280;27638;42.184;24.848;2022-07-06T10:40:01;99571.03;;;31.77;40.29
41947;BME280;27638;42.184;24.848;2022-07-06T10:42:50;99564.53;;;31.87;39.78
41947;BME280;27638;42.184;24.848;2022-07-06T10:50:45;99552.88;;;31.81;39.00
41947;BME280;27638;42.184;24.848;2022-07-06T10:53:13;99569.19;;;31.86;38.48
41947;BME280;27638;42.184;24.848;2022-07-06T10:55:40;99557.53;;;31.53;39.01
41947;BME280;27638;42.184;24.848;2022-07-06T10:58:06;99562.00;;;31.63;38.61
41947;BME280;27638;42.184;24.848;2022-07-06T11:00:51;99553.38;;;31.56;38.66
41947;BME280;27638;42.184;24.848;2022-07-06T11:03:38;99558.97;;;31.78;36.41
41947;BME280;27638;42.184;24.848;2022-07-06T11:06:08;99560.09;;;31.77;37.68
41947;BME280;27638;42.184;24.848;2022-07-06T11:08:48;99556.13;;;31.56;39.23
41947;BME280;27638;42.184;24.848;2022-07-06T11:14:00;99545.38;;;31.59;38.21
41947;BME280;27638;42.184;24.848;2022-07-06T11:16:30;99545.47;;;31.54;38.47
41947;BME280;27638;42.184;24.848;2022-07-06T11:19:11;99541.41;;;31.65;38.38
41947;BME280;27638;42.184;24.848;2022-07-06T11:24:11;99542.75;;;31.54;39.64
41947;BME280;27638;42.184;24.848;2022-07-06T11:26:37;99539.09;;;31.59;38.29
41947;BME280;27638;42.184;24.848;2022-07-06T11:29:07;99531.72;;;31.73;38.47
41947;BME280;27638;42.184;24.848;2022-07-06T11:31:34;99526.94;;;31.65;39.89
41947;BME280;27638;42.184;24.848;2022-07-06T11:34:02;99518.91;;;31.82;37.87
41947;BME280;27638;42.184;24.848;2022-07-06T11:36:27;99527.22;;;31.63;39.09
41947;BME280;27638;42.184;24.848;2022-07-06T11:38:52;99521.25;;;31.61;39.59
41947;BME280;27638;42.184;24.848;2022-07-06T11:41:18;99521.78;;;31.36;39.78
41947;BME280;27638;42.184;24.848;2022-07-06T11:43:45;99514.19;;;31.33;39.78
41947;BME280;27638;42.184;24.848;2022-07-06T11:46:27;99524.81;;;31.48;38.68
41947;BME280;27638;42.184;24.848;2022-07-06T11:48:56;99519.34;;;31.48;37.52
41947;BME280;27638;42.184;24.848;2022-07-06T11:51:24;99519.84;;;31.50;36.95
41947;BME280;27638;42.184;24.848;2022-07-06T11:53:55;99505.84;;;31.65;35.80
41947;BME280;27638;42.184;24.848;2022-07-06T11:56:22;99510.34;;;31.97;34.87
41947;BME280;27638;42.184;24.848;2022-07-06T11:58:51;99506.19;;;32.00;35.44
41947;BME280;27638;42.184;24.848;2022-07-06T12:01:18;99497.91;;;31.91;35.81
41947;BME280;27638;42.184;24.848;2022-07-06T12:03:44;99498.44;;;31.80;35.95
41947;BME280;27638;42.184;24.848;2022-07-06T12:06:21;99487.69;;;31.83;35.72
41947;BME280;27638;42.184;24.848;2022-07-06T12:08:51;99489.50;;;31.88;35.41
41947;BME280;27638;42.184;24.848;2022-07-06T12:11:24;99488.38;;;31.89;35.97
41947;BME280;27638;42.184;24.848;2022-07-06T12:13:51;99491.25;;;32.06;36.43
41947;BME280;27638;42.184;24.848;2022-07-06T12:16:17;99485.09;;;32.00;36.40
41947;BME280;27638;42.184;24.848;2022-07-06T12:18:44;99461.84;;;31.75;36.73
41947;BME280;27638;42.184;24.848;2022-07-06T12:21:13;99480.38;;;32.15;35.56
41947;BME280;27638;42.184;24.848;2022-07-06T12:23:46;99472.34;;;32.18;36.06
41947;BME280;27638;42.184;24.848;2022-07-06T12:26:14;99486.91;;;32.05;36.68
41947;BME280;27638;42.184;24.848;2022-07-06T12:28:41;99484.72;;;31.93;37.02
41947;BME280;27638;42.184;24.848;2022-07-06T12:31:07;99488.28;;;31.80;37.73
41947;BME280;27638;42.184;24.848;2022-07-06T12:33:33;99470.97;;;32.07;36.44
41947;BME280;27638;42.184;24.848;2022-07-06T12:36:13;99473.06;;;32.10;36.76
41947;BME280;27638;42.184;24.848;2022-07-06T12:38:45;99477.56;;;32.06;37.08
41947;BME280;27638;42.184;24.848;2022-07-06T12:41:11;99474.44;;;31.99;36.82
41947;BME280;27638;42.184;24.848;2022-07-06T12:43:40;99468.72;;;32.09;37.29
41947;BME280;27638;42.184;24.848;2022-07-06T12:46:31;99472.94;;;32.15;37.30
41947;BME280;27638;42.184;24.848;2022-07-06T12:48:59;99467.28;;;32.25;35.41
41947;BME280;27638;42.184;24.848;2022-07-06T12:51:25;99454.22;;;32.08;37.18
41947;BME280;27638;42.184;24.848;2022-07-06T12:53:51;99461.19;;;32.15;36.67
41947;BME280;27638;42.184;24.848;2022-07-06T12:56:17;99465.22;;;31.95;37.01
41947;BME280;27638;42.184;24.848;2022-07-06T12:59:08;99455.28;;;32.21;37.45
41947;BME280;27638;42.184;24.848;2022-07-06T13:01:34;99456.47;;;32.06;38.11